sensor_id;sensor_type;location;lat;lon;timestamp;P1;durP1;ratioP1;P2;durP2;ratioP2
20251;SDS011;10284;58.364;15.550;2023-04-24T00:00:12;35.35;;;19.90;;
20251;SDS011;10284;58.364;15.550;2023-04-24T00:02:39;35.80;;;19.17;;
20251;SDS011;10284;58.364;15.550;2023-04-24T00:05:05;31.65;;;18.20;;
20251;SDS011;10284;58.364;15.550;2023-04-24T00:07:31;38.83;;;19.58;;
20251;SDS011;10284;58.364;15.550;2023-04-24T00:09:56;37.33;;;19.30;;
20251;SDS011;10284;58.364;15.550;2023-04-24T00:12:22;35.97;;;19.70;;
20251;SDS011;10284;58.364;15.550;2023-04-24T00:14:48;33.22;;;19.33;;
20251;SDS011;10284;58.364;15.550;2023-04-24T00:17:14;36.92;;;19.27;;
20251;SDS011;10284;58.364;15.550;2023-04-24T00:19:39;34.95;;;19.85;;
20251;SDS011;10284;58.364;15.550;2023-04-24T00:22:05;33.38;;;19.30;;
20251;SDS011;10284;58.364;15.550;2023-04-24T00:24:31;37.95;;;20.75;;
20251;SDS011;10284;58.364;15.550;2023-04-24T00:26:56;38.47;;;21.10;;
20251;SDS011;10284;58.364;15.550;2023-04-24T00:29:22;39.85;;;20.90;;
20251;SDS011;10284;58.364;15.550;2023-04-24T00:31:47;35.08;;;20.17;;
20251;SDS011;10284;58.364;15.550;2023-04-24T00:34:13;34.78;;;19.45;;
20251;SDS011;10284;58.364;15.550;2023-04-24T00:36:38;33.75;;;18.85;;
20251;SDS011;10284;58.364;15.550;2023-04-24T00:39:04;36.25;;;19.63;;
20251;SDS011;10284;58.364;15.550;2023-04-24T00:41:29;31.10;;;18.23;;
20251;SDS011;10284;58.364;15.550;2023-04-24T00:43:55;32.85;;;17.70;;
20251;SDS011;10284;58.364;15.550;2023-04-24T00:46:20;29.65;;;17.23;;
20251;SDS011;10284;58.364;15.550;2023-04-24T00:48:46;25.92;;;15.68;;
20251;SDS011;10284;58.364;15.550;2023-04-24T00:51:12;26.88;;;15.27;;
20251;SDS011;10284;58.364;15.550;2023-04-24T00:53:37;26.27;;;15.60;;
20251;SDS011;10284;58.364;15.550;2023-04-24T00:56:03;28.30;;;15.80;;
20251;SDS011;10284;58.364;15.550;2023-04-24T00:58:29;25.00;;;14.43;;
20251;SDS011;10284;58.364;15.550;2023-04-24T01:00:56;25.85;;;15.25;;
20251;SDS011;10284;58.364;15.550;2023-04-24T01:03:22;27.83;;;15.98;;
20251;SDS011;10284;58.364;15.550;2023-04-24T01:05:51;26.92;;;15.52;;
20251;SDS011;10284;58.364;15.550;2023-04-24T01:08:17;23.70;;;14.38;;
20251;SDS011;10284;58.364;15.550;2023-04-24T01:10:43;25.35;;;15.05;;
20251;SDS011;10284;58.364;15.550;2023-04-24T01:13:10;30.13;;;16.00;;
20251;SDS011;10284;58.364;15.550;2023-04-24T01:15:35;31.75;;;17.27;;
20251;SDS011;10284;58.364;15.550;2023-04-24T01:18:01;29.20;;;16.73;;
20251;SDS011;10284;58.364;15.550;2023-04-24T01:20:27;28.13;;;16.33;;
20251;SDS011;10284;58.364;15.550;2023-04-24T01:22:56;27.25;;;15.88;;
20251;SDS011;10284;58.364;15.550;2023-04-24T01:25:22;31.60;;;18.95;;
20251;SDS011;10284;58.364;15.550;2023-04-24T01:27:48;37.15;;;20.23;;
20251;SDS011;10284;58.364;15.550;2023-04-24T01:30:14;40.03;;;21.50;;
20251;SDS011;10284;58.364;15.550;2023-04-24T01:32:40;40.40;;;21.77;;
20251;SDS011;10284;58.364;15.550;2023-04-24T01:35:05;42.83;;;22.25;;
20251;SDS011;10284;58.364;15.550;2023-04-24T01:37:32;46.90;;;22.27;;
20251;SDS011;10284;58.364;15.550;2023-04-24T01:39:58;48.67;;;23.50;;
20251;SDS011;10284;58.364;15.550;2023-04-24T01:42:23;53.20;;;24.70;;
20251;SDS011;10284;58.364;15.550;2023-04-24T01:44:49;46.92;;;25.17;;
20251;SDS011;10284;58.364;15.550;2023-04-24T01:47:15;54.03;;;24.63;;
20251;SDS011;10284;58.364;15.550;2023-04-24T01:49:40;62.35;;;25.55;;
20251;SDS011;10284;58.364;15.550;2023-04-24T01:52:06;60.63;;;25.92;;
20251;SDS011;10284;58.364;15.550;2023-04-24T01:54:31;57.10;;;24.33;;
20251;SDS011;10284;58.364;15.550;2023-04-24T01:56:57;76.97;;;26.23;;
20251;SDS011;10284;58.364;15.550;2023-04-24T01:59:22;60.28;;;26.48;;
20251;SDS011;10284;58.364;15.550;2023-04-24T02:01:48;59.05;;;25.13;;
20251;SDS011;10284;58.364;15.550;2023-04-24T02:04:14;67.55;;;25.27;;
20251;SDS011;10284;58.364;15.550;2023-04-24T02:06:40;59.88;;;26.45;;
20251;SDS011;10284;58.364;15.550;2023-04-24T02:09:05;59.47;;;26.30;;
20251;SDS011;10284;58.364;15.550;2023-04-24T02:11:32;62.13;;;25.75;;
20251;SDS011;10284;58.364;15.550;2023-04-24T02:13:57;73.57;;;27.20;;
20251;SDS011;10284;58.364;15.550;2023-04-24T02:16:22;67.97;;;26.85;;
20251;SDS011;10284;58.364;15.550;2023-04-24T02:18:48;64.13;;;27.60;;
20251;SDS011;10284;58.364;15.550;2023-04-24T02:21:13;65.65;;;27.30;;
20251;SDS011;10284;58.364;15.550;2023-04-24T02:23:39;67.35;;;27.30;;
20251;SDS011;10284;58.364;15.550;2023-04-24T02:26:05;58.45;;;27.77;;
20251;SDS011;10284;58.364;15.550;2023-04-24T02:28:30;64.18;;;27.75;;
20251;SDS011;10284;58.364;15.550;2023-04-24T02:30:56;61.00;;;28.25;;
20251;SDS011;10284;58.364;15.550;2023-04-24T02:33:21;65.40;;;29.15;;
20251;SDS011;10284;58.364;15.550;2023-04-24T02:35:47;65.10;;;28.27;;
20251;SDS011;10284;58.364;15.550;2023-04-24T02:38:12;62.33;;;28.98;;
20251;SDS011;10284;58.364;15.550;2023-04-24T02:40:38;70.38;;;29.60;;
20251;SDS011;10284;58.364;15.550;2023-04-24T02:43:03;59.72;;;28.67;;
20251;SDS011;10284;58.364;15.550;2023-04-24T02:45:28;66.90;;;30.40;;
20251;SDS011;10284;58.364;15.550;2023-04-24T02:47:54;66.07;;;31.00;;
20251;SDS011;10284;58.364;15.550;2023-04-24T02:50:19;68.38;;;30.15;;
20251;SDS011;10284;58.364;15.550;2023-04-24T02:52:45;69.97;;;30.98;;
20251;SDS011;10284;58.364;15.550;2023-04-24T02:55:10;69.22;;;31.67;;
20251;SDS011;10284;58.364;15.550;2023-04-24T02:57:36;66.22;;;30.95;;
20251;SDS011;10284;58.364;15.550;2023-04-24T03:00:01;70.25;;;31.77;;
20251;SDS011;10284;58.364;15.550;2023-04-24T03:02:28;64.85;;;31.55;;
20251;SDS011;10284;58.364;15.550;2023-04-24T03:04:53;65.55;;;30.63;;
20251;SDS011;10284;58.364;15.550;2023-04-24T03:07:20;64.32;;;29.80;;
20251;SDS011;10284;58.364;15.550;2023-04-24T03:09:46;64.13;;;29.88;;
20251;SDS011;10284;58.364;15.550;2023-04-24T03:12:12;65.82;;;30.45;;
20251;SDS011;10284;58.364;15.550;2023-04-24T03:14:37;64.88;;;28.88;;
20251;SDS011;10284;58.364;15.550;2023-04-24T03:17:03;64.32;;;30.70;;
20251;SDS011;10284;58.364;15.550;2023-04-24T03:19:28;65.25;;;29.25;;
20251;SDS011;10284;58.364;15.550;2023-04-24T03:21:54;65.35;;;30.58;;
20251;SDS011;10284;58.364;15.550;2023-04-24T03:24:19;63.38;;;30.55;;
20251;SDS011;10284;58.364;15.550;2023-04-24T03:26:45;61.67;;;30.38;;
20251;SDS011;10284;58.364;15.550;2023-04-24T03:29:11;63.45;;;30.20;;
20251;SDS011;10284;58.364;15.550;2023-04-24T03:31:36;58.67;;;29.27;;
20251;SDS011;10284;58.364;15.550;2023-04-24T03:34:01;66.13;;;30.10;;
20251;SDS011;10284;58.364;15.550;2023-04-24T03:36:27;60.30;;;28.75;;
20251;SDS011;10284;58.364;15.550;2023-04-24T03:38:52;65.70;;;30.98;;
20251;SDS011;10284;58.364;15.550;2023-04-24T03:41:18;72.10;;;32.22;;
20251;SDS011;10284;58.364;15.550;2023-04-24T03:43:44;60.90;;;30.52;;
20251;SDS011;10284;58.364;15.550;2023-04-24T03:46:09;63.80;;;30.42;;
20251;SDS011;10284;58.364;15.550;2023-04-24T03:48:35;56.97;;;28.98;;
20251;SDS011;10284;58.364;15.550;2023-04-24T03:51:00;77.32;;;30.50;;
20251;SDS011;10284;58.364;15.550;2023-04-24T03:53:26;66.63;;;30.48;;
20251;SDS011;10284;58.364;15.550;2023-04-24T03:55:52;64.80;;;31.25;;
20251;SDS011;10284;58.364;15.550;2023-04-24T03:58:18;67.80;;;30.52;;
20251;SDS011;10284;58.364;15.550;2023-04-24T04:00:44;70.32;;;31.27;;
20251;SDS011;10284;58.364;15.550;2023-04-24T04:03:09;61.83;;;29.08;;
20251;SDS011;10284;58.364;15.550;2023-04-24T04:05:34;69.45;;;30.23;;
20251;SDS011;10284;58.364;15.550;2023-04-24T04:08:00;64.20;;;29.90;;
20251;SDS011;10284;58.364;15.550;2023-04-24T04:10:26;61.95;;;29.20;;
20251;SDS011;10284;58.364;15.550;2023-04-24T04:12:51;66.15;;;30.40;;
20251;SDS011;10284;58.364;15.550;2023-04-24T04:15:16;63.58;;;29.63;;
20251;SDS011;10284;58.364;15.550;2023-04-24T04:17:42;57.67;;;28.27;;
20251;SDS011;10284;58.364;15.550;2023-04-24T04:20:07;56.70;;;29.35;;
20251;SDS011;10284;58.364;15.550;2023-04-24T04:22:36;57.55;;;28.70;;
20251;SDS011;10284;58.364;15.550;2023-04-24T04:25:02;52.95;;;28.13;;
20251;SDS011;10284;58.364;15.550;2023-04-24T04:27:29;53.85;;;27.67;;
20251;SDS011;10284;58.364;15.550;2023-04-24T04:29:57;57.88;;;29.15;;
20251;SDS011;10284;58.364;15.550;2023-04-24T04:32:24;58.53;;;29.92;;
20251;SDS011;10284;58.364;15.550;2023-04-24T04:34:50;51.13;;;27.10;;
20251;SDS011;10284;58.364;15.550;2023-04-24T04:37:18;53.25;;;28.27;;
20251;SDS011;10284;58.364;15.550;2023-04-24T04:39:43;53.67;;;27.27;;
20251;SDS011;10284;58.364;15.550;2023-04-24T04:42:09;50.17;;;26.08;;
20251;SDS011;10284;58.364;15.550;2023-04-24T04:44:34;51.83;;;27.30;;
20251;SDS011;10284;58.364;15.550;2023-04-24T04:47:01;57.63;;;28.33;;
20251;SDS011;10284;58.364;15.550;2023-04-24T04:49:28;55.63;;;29.52;;
20251;SDS011;10284;58.364;15.550;2023-04-24T04:51:54;55.88;;;28.33;;
20251;SDS011;10284;58.364;15.550;2023-04-24T04:54:20;60.45;;;29.75;;
20251;SDS011;10284;58.364;15.550;2023-04-24T04:56:45;55.75;;;28.33;;
20251;SDS011;10284;58.364;15.550;2023-04-24T04:59:11;53.50;;;26.58;;
20251;SDS011;10284;58.364;15.550;2023-04-24T05:01:37;55.25;;;28.05;;
20251;SDS011;10284;58.364;15.550;2023-04-24T05:04:03;49.05;;;26.95;;
20251;SDS011;10284;58.364;15.550;2023-04-24T05:06:28;52.08;;;27.92;;
20251;SDS011;10284;58.364;15.550;2023-04-24T05:08:55;52.28;;;27.55;;
20251;SDS011;10284;58.364;15.550;2023-04-24T05:11:22;50.47;;;26.77;;
20251;SDS011;10284;58.364;15.550;2023-04-24T05:13:48;56.50;;;27.65;;
20251;SDS011;10284;58.364;15.550;2023-04-24T05:16:14;50.75;;;26.65;;
20251;SDS011;10284;58.364;15.550;2023-04-24T05:18:39;52.72;;;27.52;;
20251;SDS011;10284;58.364;15.550;2023-04-24T05:21:05;53.80;;;28.25;;
20251;SDS011;10284;58.364;15.550;2023-04-24T05:23:31;48.55;;;25.45;;
20251;SDS011;10284;58.364;15.550;2023-04-24T05:25:56;47.47;;;26.17;;
20251;SDS011;10284;58.364;15.550;2023-04-24T05:28:22;49.65;;;26.15;;
20251;SDS011;10284;58.364;15.550;2023-04-24T05:30:47;49.50;;;26.90;;
20251;SDS011;10284;58.364;15.550;2023-04-24T05:33:13;54.88;;;27.95;;
20251;SDS011;10284;58.364;15.550;2023-04-24T05:35:39;50.38;;;26.40;;
20251;SDS011;10284;58.364;15.550;2023-04-24T05:38:10;50.28;;;26.52;;
20251;SDS011;10284;58.364;15.550;2023-04-24T05:40:36;47.70;;;26.13;;
20251;SDS011;10284;58.364;15.550;2023-04-24T05:43:01;54.97;;;26.77;;
20251;SDS011;10284;58.364;15.550;2023-04-24T05:45:27;48.90;;;26.20;;
20251;SDS011;10284;58.364;15.550;2023-04-24T05:47:52;53.92;;;26.75;;
20251;SDS011;10284;58.364;15.550;2023-04-24T05:50:17;50.63;;;27.08;;
20251;SDS011;10284;58.364;15.550;2023-04-24T05:52:43;52.03;;;27.05;;
20251;SDS011;10284;58.364;15.550;2023-04-24T05:55:09;49.40;;;26.92;;
20251;SDS011;10284;58.364;15.550;2023-04-24T05:57:35;50.03;;;26.15;;
20251;SDS011;10284;58.364;15.550;2023-04-24T06:00:00;51.65;;;27.23;;
20251;SDS011;10284;58.364;15.550;2023-04-24T06:02:26;51.58;;;27.55;;
20251;SDS011;10284;58.364;15.550;2023-04-24T06:04:52;46.13;;;26.10;;
20251;SDS011;10284;58.364;15.550;2023-04-24T06:07:17;46.35;;;25.75;;
20251;SDS011;10284;58.364;15.550;2023-04-24T06:09:43;44.97;;;24.88;;
20251;SDS011;10284;58.364;15.550;2023-04-24T06:12:08;43.13;;;24.83;;
20251;SDS011;10284;58.364;15.550;2023-04-24T06:14:34;44.72;;;25.98;;
20251;SDS011;10284;58.364;15.550;2023-04-24T06:16:59;41.97;;;23.90;;
20251;SDS011;10284;58.364;15.550;2023-04-24T06:19:25;43.42;;;24.45;;
20251;SDS011;10284;58.364;15.550;2023-04-24T06:21:50;45.03;;;25.48;;
20251;SDS011;10284;58.364;15.550;2023-04-24T06:24:16;45.83;;;25.00;;
20251;SDS011;10284;58.364;15.550;2023-04-24T06:26:41;39.53;;;23.52;;
20251;SDS011;10284;58.364;15.550;2023-04-24T06:29:07;45.85;;;24.15;;
20251;SDS011;10284;58.364;15.550;2023-04-24T06:31:32;45.92;;;25.55;;
20251;SDS011;10284;58.364;15.550;2023-04-24T06:34:02;45.95;;;25.23;;
20251;SDS011;10284;58.364;15.550;2023-04-24T06:36:28;45.10;;;25.00;;
20251;SDS011;10284;58.364;15.550;2023-04-24T06:38:53;42.10;;;23.60;;
20251;SDS011;10284;58.364;15.550;2023-04-24T06:41:19;45.05;;;24.98;;
20251;SDS011;10284;58.364;15.550;2023-04-24T06:43:44;45.78;;;26.38;;
20251;SDS011;10284;58.364;15.550;2023-04-24T06:46:10;50.92;;;26.23;;
20251;SDS011;10284;58.364;15.550;2023-04-24T06:48:35;46.72;;;25.50;;
20251;SDS011;10284;58.364;15.550;2023-04-24T06:51:01;43.80;;;25.30;;
20251;SDS011;10284;58.364;15.550;2023-04-24T06:53:26;48.83;;;25.90;;
20251;SDS011;10284;58.364;15.550;2023-04-24T06:55:52;47.92;;;26.80;;
20251;SDS011;10284;58.364;15.550;2023-04-24T06:58:17;45.08;;;26.30;;
20251;SDS011;10284;58.364;15.550;2023-04-24T07:00:43;44.92;;;26.63;;
20251;SDS011;10284;58.364;15.550;2023-04-24T07:03:08;44.20;;;25.48;;
20251;SDS011;10284;58.364;15.550;2023-04-24T07:05:34;43.72;;;24.77;;
20251;SDS011;10284;58.364;15.550;2023-04-24T07:08:00;45.63;;;26.33;;
20251;SDS011;10284;58.364;15.550;2023-04-24T07:10:26;45.80;;;25.85;;
20251;SDS011;10284;58.364;15.550;2023-04-24T07:12:53;46.92;;;27.02;;
20251;SDS011;10284;58.364;15.550;2023-04-24T07:15:19;46.20;;;25.52;;
20251;SDS011;10284;58.364;15.550;2023-04-24T07:17:44;44.28;;;25.08;;
20251;SDS011;10284;58.364;15.550;2023-04-24T07:20:10;41.53;;;24.00;;
20251;SDS011;10284;58.364;15.550;2023-04-24T07:22:39;40.65;;;23.80;;
20251;SDS011;10284;58.364;15.550;2023-04-24T07:25:04;44.45;;;25.40;;
20251;SDS011;10284;58.364;15.550;2023-04-24T07:27:30;44.53;;;25.88;;
20251;SDS011;10284;58.364;15.550;2023-04-24T07:29:56;49.53;;;26.85;;
20251;SDS011;10284;58.364;15.550;2023-04-24T07:32:21;47.08;;;25.92;;
20251;SDS011;10284;58.364;15.550;2023-04-24T07:34:46;47.33;;;26.92;;
20251;SDS011;10284;58.364;15.550;2023-04-24T07:37:12;47.50;;;26.90;;
20251;SDS011;10284;58.364;15.550;2023-04-24T07:39:37;50.85;;;27.17;;
20251;SDS011;10284;58.364;15.550;2023-04-24T07:42:03;44.25;;;26.40;;
20251;SDS011;10284;58.364;15.550;2023-04-24T07:44:29;48.05;;;27.02;;
20251;SDS011;10284;58.364;15.550;2023-04-24T07:46:54;46.30;;;24.77;;
20251;SDS011;10284;58.364;15.550;2023-04-24T07:49:21;48.80;;;26.95;;
20251;SDS011;10284;58.364;15.550;2023-04-24T07:51:46;44.25;;;26.00;;
20251;SDS011;10284;58.364;15.550;2023-04-24T07:54:12;43.60;;;25.35;;
20251;SDS011;10284;58.364;15.550;2023-04-24T07:56:37;43.50;;;25.58;;
20251;SDS011;10284;58.364;15.550;2023-04-24T07:59:06;41.92;;;24.27;;
20251;SDS011;10284;58.364;15.550;2023-04-24T08:01:32;42.25;;;25.77;;
20251;SDS011;10284;58.364;15.550;2023-04-24T08:03:57;42.45;;;25.80;;
20251;SDS011;10284;58.364;15.550;2023-04-24T08:06:22;45.80;;;25.25;;
20251;SDS011;10284;58.364;15.550;2023-04-24T08:08:48;47.75;;;25.92;;
20251;SDS011;10284;58.364;15.550;2023-04-24T08:11:13;43.92;;;25.25;;
20251;SDS011;10284;58.364;15.550;2023-04-24T08:13:39;44.67;;;25.15;;
20251;SDS011;10284;58.364;15.550;2023-04-24T08:16:04;46.63;;;27.30;;
20251;SDS011;10284;58.364;15.550;2023-04-24T08:18:30;50.00;;;26.52;;
20251;SDS011;10284;58.364;15.550;2023-04-24T08:20:55;43.40;;;25.40;;
20251;SDS011;10284;58.364;15.550;2023-04-24T08:23:26;44.33;;;26.30;;
20251;SDS011;10284;58.364;15.550;2023-04-24T08:25:51;43.15;;;25.35;;
20251;SDS011;10284;58.364;15.550;2023-04-24T08:28:17;44.90;;;25.83;;
20251;SDS011;10284;58.364;15.550;2023-04-24T08:30:45;46.13;;;25.85;;
20251;SDS011;10284;58.364;15.550;2023-04-24T08:33:11;43.25;;;26.98;;
20251;SDS011;10284;58.364;15.550;2023-04-24T08:35:36;42.75;;;27.52;;
20251;SDS011;10284;58.364;15.550;2023-04-24T08:38:02;40.72;;;25.20;;
20251;SDS011;10284;58.364;15.550;2023-04-24T08:40:28;40.20;;;24.60;;
20251;SDS011;10284;58.364;15.550;2023-04-24T08:42:56;36.25;;;22.60;;
20251;SDS011;10284;58.364;15.550;2023-04-24T08:45:22;38.63;;;23.75;;
20251;SDS011;10284;58.364;15.550;2023-04-24T08:47:48;37.45;;;23.75;;
20251;SDS011;10284;58.364;15.550;2023-04-24T08:50:14;39.50;;;24.45;;
20251;SDS011;10284;58.364;15.550;2023-04-24T08:52:40;39.38;;;24.50;;
20251;SDS011;10284;58.364;15.550;2023-04-24T08:55:07;38.75;;;22.83;;
20251;SDS011;10284;58.364;15.550;2023-04-24T08:57:32;42.60;;;25.00;;
20251;SDS011;10284;58.364;15.550;2023-04-24T08:59:58;41.22;;;24.00;;
20251;SDS011;10284;58.364;15.550;2023-04-24T09:02:25;41.28;;;25.98;;
20251;SDS011;10284;58.364;15.550;2023-04-24T09:04:50;40.90;;;24.58;;
20251;SDS011;10284;58.364;15.550;2023-04-24T09:07:16;37.72;;;23.98;;
20251;SDS011;10284;58.364;15.550;2023-04-24T09:09:43;42.15;;;23.60;;
20251;SDS011;10284;58.364;15.550;2023-04-24T09:12:08;38.50;;;24.02;;
20251;SDS011;10284;58.364;15.550;2023-04-24T09:14:35;37.33;;;22.80;;
20251;SDS011;10284;58.364;15.550;2023-04-24T09:17:04;40.63;;;24.48;;
20251;SDS011;10284;58.364;15.550;2023-04-24T09:19:31;42.40;;;25.35;;
20251;SDS011;10284;58.364;15.550;2023-04-24T09:21:56;38.60;;;23.80;;
20251;SDS011;10284;58.364;15.550;2023-04-24T09:24:22;35.78;;;24.00;;
20251;SDS011;10284;58.364;15.550;2023-04-24T09:26:48;42.20;;;23.88;;
20251;SDS011;10284;58.364;15.550;2023-04-24T09:29:17;42.78;;;25.08;;
20251;SDS011;10284;58.364;15.550;2023-04-24T09:31:43;41.13;;;25.02;;
20251;SDS011;10284;58.364;15.550;2023-04-24T09:34:09;42.90;;;24.23;;
20251;SDS011;10284;58.364;15.550;2023-04-24T09:36:38;41.67;;;24.33;;
20251;SDS011;10284;58.364;15.550;2023-04-24T09:39:06;37.17;;;22.73;;
20251;SDS011;10284;58.364;15.550;2023-04-24T09:41:33;41.00;;;23.42;;
20251;SDS011;10284;58.364;15.550;2023-04-24T09:44:12;39.55;;;24.42;;
20251;SDS011;10284;58.364;15.550;2023-04-24T09:46:39;39.58;;;24.98;;
20251;SDS011;10284;58.364;15.550;2023-04-24T09:49:09;38.53;;;24.02;;
20251;SDS011;10284;58.364;15.550;2023-04-24T09:51:36;40.28;;;24.77;;
20251;SDS011;10284;58.364;15.550;2023-04-24T09:54:03;39.25;;;23.75;;
20251;SDS011;10284;58.364;15.550;2023-04-24T09:56:32;36.80;;;23.55;;
20251;SDS011;10284;58.364;15.550;2023-04-24T09:59:07;39.75;;;24.27;;
20251;SDS011;10284;58.364;15.550;2023-04-24T10:01:33;41.10;;;24.65;;
20251;SDS011;10284;58.364;15.550;2023-04-24T10:03:58;39.25;;;24.33;;
20251;SDS011;10284;58.364;15.550;2023-04-24T10:06:32;43.88;;;25.98;;
20251;SDS011;10284;58.364;15.550;2023-04-24T10:08:58;40.60;;;24.42;;
20251;SDS011;10284;58.364;15.550;2023-04-24T10:11:26;47.00;;;25.50;;
20251;SDS011;10284;58.364;15.550;2023-04-24T10:13:52;41.55;;;24.55;;
20251;SDS011;10284;58.364;15.550;2023-04-24T10:16:18;40.20;;;24.75;;
20251;SDS011;10284;58.364;15.550;2023-04-24T10:18:45;41.67;;;24.58;;
20251;SDS011;10284;58.364;15.550;2023-04-24T10:21:12;39.10;;;23.13;;
20251;SDS011;10284;58.364;15.550;2023-04-24T10:23:37;40.35;;;23.42;;
20251;SDS011;10284;58.364;15.550;2023-04-24T10:26:03;40.95;;;25.02;;
20251;SDS011;10284;58.364;15.550;2023-04-24T10:28:29;38.83;;;24.80;;
20251;SDS011;10284;58.364;15.550;2023-04-24T10:30:56;37.72;;;23.90;;
20251;SDS011;10284;58.364;15.550;2023-04-24T10:33:22;39.63;;;23.50;;
20251;SDS011;10284;58.364;15.550;2023-04-24T10:35:48;36.45;;;22.38;;
20251;SDS011;10284;58.364;15.550;2023-04-24T10:38:21;35.22;;;22.23;;
20251;SDS011;10284;58.364;15.550;2023-04-24T10:40:49;38.13;;;22.45;;
20251;SDS011;10284;58.364;15.550;2023-04-24T10:43:16;37.60;;;22.77;;
20251;SDS011;10284;58.364;15.550;2023-04-24T10:45:42;32.80;;;20.63;;
20251;SDS011;10284;58.364;15.550;2023-04-24T10:48:26;36.08;;;21.25;;
20251;SDS011;10284;58.364;15.550;2023-04-24T10:50:52;39.08;;;23.33;;
20251;SDS011;10284;58.364;15.550;2023-04-24T10:53:19;40.97;;;23.85;;
20251;SDS011;10284;58.364;15.550;2023-04-24T10:55:49;35.92;;;22.80;;
20251;SDS011;10284;58.364;15.550;2023-04-24T10:58:16;38.38;;;22.95;;
20251;SDS011;10284;58.364;15.550;2023-04-24T11:00:55;35.53;;;21.35;;
20251;SDS011;10284;58.364;15.550;2023-04-24T11:03:24;34.38;;;22.15;;
20251;SDS011;10284;58.364;15.550;2023-04-24T11:06:07;35.63;;;21.73;;
20251;SDS011;10284;58.364;15.550;2023-04-24T11:08:42;35.13;;;21.90;;
20251;SDS011;10284;58.364;15.550;2023-04-24T11:11:12;36.42;;;22.13;;
20251;SDS011;10284;58.364;15.550;2023-04-24T11:18:52;33.30;;;20.30;;
20251;SDS011;10284;58.364;15.550;2023-04-24T11:21:22;35.55;;;21.48;;
20251;SDS011;10284;58.364;15.550;2023-04-24T11:23:47;33.85;;;22.00;;
20251;SDS011;10284;58.364;15.550;2023-04-24T11:26:17;36.30;;;23.30;;
20251;SDS011;10284;58.364;15.550;2023-04-24T11:28:46;34.92;;;21.73;;
20251;SDS011;10284;58.364;15.550;2023-04-24T11:34:07;33.17;;;21.27;;
20251;SDS011;10284;58.364;15.550;2023-04-24T11:36:34;35.35;;;20.63;;
20251;SDS011;10284;58.364;15.550;2023-04-24T11:39:00;36.08;;;21.15;;
20251;SDS011;10284;58.364;15.550;2023-04-24T11:41:26;33.70;;;21.33;;
20251;SDS011;10284;58.364;15.550;2023-04-24T11:43:52;34.75;;;20.58;;
20251;SDS011;10284;58.364;15.550;2023-04-24T11:46:20;33.58;;;21.10;;
20251;SDS011;10284;58.364;15.550;2023-04-24T11:48:46;33.22;;;20.30;;
20251;SDS011;10284;58.364;15.550;2023-04-24T11:51:12;32.75;;;21.42;;
20251;SDS011;10284;58.364;15.550;2023-04-24T11:53:38;32.13;;;20.20;;
20251;SDS011;10284;58.364;15.550;2023-04-24T11:56:03;34.28;;;20.05;;
20251;SDS011;10284;58.364;15.550;2023-04-24T11:58:34;29.42;;;19.33;;
20251;SDS011;10284;58.364;15.550;2023-04-24T12:01:00;31.33;;;19.85;;
20251;SDS011;10284;58.364;15.550;2023-04-24T12:03:26;31.33;;;20.52;;
20251;SDS011;10284;58.364;15.550;2023-04-24T12:05:51;29.23;;;19.50;;
20251;SDS011;10284;58.364;15.550;2023-04-24T12:08:27;31.25;;;18.90;;
20251;SDS011;10284;58.364;15.550;2023-04-24T12:10:53;29.05;;;18.67;;
20251;SDS011;10284;58.364;15.550;2023-04-24T12:13:19;27.30;;;17.67;;
20251;SDS011;10284;58.364;15.550;2023-04-24T12:15:45;27.23;;;17.60;;
20251;SDS011;10284;58.364;15.550;2023-04-24T12:18:13;27.73;;;18.23;;
20251;SDS011;10284;58.364;15.550;2023-04-24T12:20:39;29.33;;;18.35;;
20251;SDS011;10284;58.364;15.550;2023-04-24T12:23:05;28.05;;;17.45;;
20251;SDS011;10284;58.364;15.550;2023-04-24T12:25:31;26.65;;;18.17;;
20251;SDS011;10284;58.364;15.550;2023-04-24T12:30:29;28.58;;;17.35;;
20251;SDS011;10284;58.364;15.550;2023-04-24T12:32:58;26.10;;;15.98;;
20251;SDS011;10284;58.364;15.550;2023-04-24T12:35:26;26.52;;;16.98;;
20251;SDS011;10284;58.364;15.550;2023-04-24T12:37:52;27.73;;;16.80;;
20251;SDS011;10284;58.364;15.550;2023-04-24T12:40:18;28.65;;;17.17;;
20251;SDS011;10284;58.364;15.550;2023-04-24T12:42:48;25.95;;;17.35;;
20251;SDS011;10284;58.364;15.550;2023-04-24T12:45:15;26.10;;;16.23;;
20251;SDS011;10284;58.364;15.550;2023-04-24T12:47:42;25.92;;;16.70;;
20251;SDS011;10284;58.364;15.550;2023-04-24T12:50:09;24.10;;;15.52;;
20251;SDS011;10284;58.364;15.550;2023-04-24T12:52:36;24.80;;;14.85;;
20251;SDS011;10284;58.364;15.550;2023-04-24T12:55:02;23.90;;;15.82;;
20251;SDS011;10284;58.364;15.550;2023-04-24T12:57:29;24.30;;;15.55;;
20251;SDS011;10284;58.364;15.550;2023-04-24T12:59:55;24.42;;;15.23;;
20251;SDS011;10284;58.364;15.550;2023-04-24T13:02:22;23.35;;;14.65;;
20251;SDS011;10284;58.364;15.550;2023-04-24T13:04:49;21.95;;;14.68;;
20251;SDS011;10284;58.364;15.550;2023-04-24T13:07:15;20.90;;;13.57;;
20251;SDS011;10284;58.364;15.550;2023-04-24T13:09:41;22.17;;;14.13;;
20251;SDS011;10284;58.364;15.550;2023-04-24T13:12:07;19.23;;;13.68;;
20251;SDS011;10284;58.364;15.550;2023-04-24T13:14:33;22.40;;;14.18;;
20251;SDS011;10284;58.364;15.550;2023-04-24T13:16:59;21.70;;;14.00;;
20251;SDS011;10284;58.364;15.550;2023-04-24T13:19:25;20.73;;;13.43;;
20251;SDS011;10284;58.364;15.550;2023-04-24T13:21:51;20.90;;;13.50;;
20251;SDS011;10284;58.364;15.550;2023-04-24T13:24:17;20.13;;;13.20;;
20251;SDS011;10284;58.364;15.550;2023-04-24T13:26:43;21.30;;;12.80;;
20251;SDS011;10284;58.364;15.550;2023-04-24T13:29:08;22.00;;;13.15;;
20251;SDS011;10284;58.364;15.550;2023-04-24T13:31:34;19.67;;;12.57;;
20251;SDS011;10284;58.364;15.550;2023-04-24T13:34:00;18.83;;;12.30;;
20251;SDS011;10284;58.364;15.550;2023-04-24T13:36:25;21.45;;;12.85;;
20251;SDS011;10284;58.364;15.550;2023-04-24T13:38:51;19.60;;;12.38;;
20251;SDS011;10284;58.364;15.550;2023-04-24T13:41:16;17.65;;;12.50;;
20251;SDS011;10284;58.364;15.550;2023-04-24T13:43:41;17.77;;;12.60;;
20251;SDS011;10284;58.364;15.550;2023-04-24T13:46:07;20.45;;;12.55;;
20251;SDS011;10284;58.364;15.550;2023-04-24T13:48:33;20.08;;;12.75;;
20251;SDS011;10284;58.364;15.550;2023-04-24T13:50:59;17.92;;;12.52;;
20251;SDS011;10284;58.364;15.550;2023-04-24T13:53:24;18.85;;;12.88;;
20251;SDS011;10284;58.364;15.550;2023-04-24T13:55:50;19.70;;;12.30;;
20251;SDS011;10284;58.364;15.550;2023-04-24T13:58:15;20.77;;;12.40;;
20251;SDS011;10284;58.364;15.550;2023-04-24T14:00:41;17.52;;;12.02;;
20251;SDS011;10284;58.364;15.550;2023-04-24T14:03:06;19.08;;;12.20;;
20251;SDS011;10284;58.364;15.550;2023-04-24T14:05:32;19.40;;;12.48;;
20251;SDS011;10284;58.364;15.550;2023-04-24T14:07:57;21.48;;;12.73;;
20251;SDS011;10284;58.364;15.550;2023-04-24T14:10:23;19.27;;;12.55;;
20251;SDS011;10284;58.364;15.550;2023-04-24T14:12:48;19.88;;;12.52;;